createdAt,value
2019-01-19T00:26:07.434Z,1.03
2019-01-19T00:30:30.559Z,0.84
2019-01-19T09:16:49.019Z,4.22
2019-01-19T09:39:36.901Z,5.51
2019-01-19T09:47:12.172Z,5.77
2019-01-19T09:50:32.883Z,5.48
2019-01-19T09:53:53.126Z,5.66
2019-01-19T09:57:24.485Z,5.98
2019-01-19T10:00:45.864Z,6.09
2019-01-19T10:04:05.949Z,6.33
2019-01-19T10:07:27.720Z,6.53
2019-01-19T10:14:06.885Z,7.01
2019-01-19T10:17:33.010Z,7.20
2019-01-19T10:20:41.802Z,6.38
2019-01-19T10:23:50.654Z,6.40
2019-01-19T10:26:59.618Z,5.82
2019-01-19T10:30:20.535Z,5.77
2019-01-19T10:33:29.045Z,5.96
2019-01-19T10:36:37.535Z,6.30
2019-01-19T10:40:08.942Z,6.32
2019-01-19T10:43:17.546Z,6.30
2019-01-19T10:46:26.007Z,6.77
2019-01-19T10:49:58.579Z,7.16
2019-01-19T10:53:19.233Z,7.01
2019-01-19T10:56:39.955Z,6.71
2019-01-19T11:11:58.025Z,5.32
2019-01-19T11:15:19.026Z,5.88
2019-01-19T11:18:45.154Z,6.66
2019-01-19T11:34:28.970Z,8.00
2019-01-19T13:30:23.207Z,12.47
2019-01-19T14:55:19.347Z,6.37
2019-01-19T14:59:11.616Z,6.30
2019-01-19T15:03:25.816Z,5.85
2019-01-19T15:07:34.776Z,5.80
2019-01-19T15:26:01.215Z,5.19
2019-01-19T15:30:31.067Z,5.02
2019-01-19T15:34:38.757Z,5.07
2019-01-19T15:38:36.229Z,4.90
2019-01-19T15:42:45.017Z,4.79
2019-01-19T15:47:05.615Z,4.69
2019-01-19T15:51:10.271Z,4.59
2019-01-19T16:17:05.986Z,3.84
2019-01-19T16:25:33.537Z,3.72
2019-01-19T16:30:00.350Z,3.66
2019-01-19T17:15:04.535Z,2.81
2019-01-19T17:19:42.581Z,2.79
2019-01-19T18:03:46.852Z,2.18
2019-01-19T18:16:08.339Z,2.36
2019-01-19T18:19:49.462Z,2.33
2019-01-19T18:23:48.726Z,2.28
2019-01-19T19:08:06.866Z,1.94
2019-01-19T19:11:58.031Z,1.88
2019-01-19T19:15:45.336Z,1.83
2019-01-19T19:19:51.201Z,1.77
2019-01-19T19:23:40.215Z,1.53
2019-01-19T22:28:55.002Z,0.35
